createdAt,value
2022-08-07T00:02:36.756Z,98748.60
2022-08-07T00:05:34.438Z,98749.40
2022-08-07T00:08:44.235Z,98742.20
2022-08-07T00:11:55.477Z,98741.60
2022-08-07T00:15:01.292Z,98737.20
2022-08-07T00:18:08.504Z,98737.80
2022-08-07T00:21:55.989Z,98739.80
2022-08-07T00:24:50.452Z,98730.80
2022-08-07T00:27:56.421Z,98735.40
2022-08-07T00:31:04.380Z,98733.40
2022-08-07T00:34:11.371Z,98738.80
2022-08-07T00:37:16.469Z,98734.40
2022-08-07T00:40:36.430Z,98736.40
2022-08-07T00:44:01.181Z,98738.00
2022-08-07T00:47:15.840Z,98736.20
2022-08-07T00:50:46.620Z,98732.20
2022-08-07T00:53:56.811Z,98737.00
2022-08-07T00:57:02.533Z,98732.40
2022-08-07T01:00:12.119Z,98731.80
2022-08-07T01:03:18.234Z,98728.20
2022-08-07T01:06:23.342Z,98724.80
2022-08-07T01:10:04.991Z,98728.00
2022-08-07T01:12:54.886Z,98720.60
2022-08-07T01:16:05.866Z,98721.60
2022-08-07T01:19:18.971Z,98721.00
2022-08-07T01:22:29.328Z,98722.20
2022-08-07T01:25:53.529Z,98726.20
2022-08-07T01:29:00.321Z,98729.40
2022-08-07T01:32:12.336Z,98731.80
2022-08-07T01:35:18.826Z,98728.20
2022-08-07T01:38:30.712Z,98721.20
2022-08-07T01:41:37.212Z,98720.20
2022-08-07T01:44:44.071Z,98718.40
2022-08-07T01:48:18.426Z,98724.00
2022-08-07T01:52:01.522Z,98726.00
2022-08-07T01:54:50.346Z,98720.20
2022-08-07T01:58:06.867Z,98722.00
2022-08-07T02:02:01.929Z,98721.80
2022-08-07T02:05:04.845Z,98724.60
2022-08-07T02:08:13.986Z,98723.00
2022-08-07T02:11:30.834Z,98724.80
2022-08-07T02:14:46.018Z,98725.80
2022-08-07T02:17:53.226Z,98726.40
2022-08-07T02:21:06.420Z,98734.80
2022-08-07T02:24:12.703Z,98738.40
2022-08-07T02:27:26.133Z,98733.20
2022-08-07T02:30:42.575Z,98732.00
2022-08-07T02:34:04.168Z,98737.20
2022-08-07T02:37:15.939Z,98732.80
2022-08-07T02:40:30.958Z,98733.80
2022-08-07T02:43:47.651Z,98738.40
2022-08-07T02:46:54.748Z,98737.60
2022-08-07T02:50:07.882Z,98743.00
2022-08-07T02:53:21.884Z,98732.00
2022-08-07T02:56:34.024Z,98733.60
2022-08-07T02:59:40.315Z,98739.60
2022-08-07T03:02:54.400Z,98733.80
2022-08-07T03:06:03.136Z,98732.40
2022-08-07T03:09:11.247Z,98728.00
2022-08-07T03:12:22.488Z,98726.40
2022-08-07T03:15:47.767Z,98725.80
2022-08-07T03:19:02.159Z,98729.00
2022-08-07T03:22:18.777Z,98731.80
2022-08-07T03:25:25.614Z,98726.80
2022-08-07T03:28:38.408Z,98727.00
2022-08-07T03:31:49.808Z,98724.20
2022-08-07T03:35:17.031Z,98726.20
2022-08-07T03:38:29.752Z,98726.80
2022-08-07T03:41:42.288Z,98720.80
2022-08-07T03:44:57.973Z,98724.00
2022-08-07T03:48:04.338Z,98734.00
2022-08-07T03:51:16.397Z,98738.80
2022-08-07T03:54:36.344Z,98747.60
2022-08-07T03:58:33.614Z,98751.20
2022-08-07T04:01:18.207Z,98755.40
2022-08-07T04:04:23.906Z,98753.20
2022-08-07T04:07:36.161Z,98758.40
2022-08-07T04:10:53.930Z,98755.00
2022-08-07T04:14:10.927Z,98763.20
2022-08-07T04:18:30.662Z,98768.00
2022-08-07T04:20:55.711Z,98764.20
2022-08-07T04:24:07.123Z,98765.00
2022-08-07T04:27:20.328Z,98771.60
2022-08-07T04:30:55.211Z,98774.80
2022-08-07T04:34:01.404Z,98776.60
2022-08-07T04:37:08.135Z,98781.80
2022-08-07T04:40:20.701Z,98782.40
2022-08-07T04:44:14.421Z,98783.40
2022-08-07T04:47:09.593Z,98785.40
2022-08-07T04:50:24.092Z,98788.60
2022-08-07T04:54:01.078Z,98779.40
2022-08-07T04:58:12.052Z,98779.00
2022-08-07T05:00:52.374Z,98782.80
2022-08-07T05:04:17.123Z,98786.00
2022-08-07T05:07:30.468Z,98785.60
2022-08-07T05:10:47.454Z,98789.20
2022-08-07T05:14:53.404Z,98785.20
2022-08-07T05:17:51.832Z,98779.40
2022-08-07T05:20:57.082Z,98777.20
2022-08-07T05:24:10.089Z,98780.20
2022-08-07T05:28:02.554Z,98778.00
2022-08-07T05:30:44.301Z,98779.60
2022-08-07T05:34:04.689Z,98792.40
2022-08-07T05:37:10.929Z,98798.40
2022-08-07T05:40:20.442Z,98806.40
2022-08-07T05:43:49.817Z,98803.20
2022-08-07T05:46:52.506Z,98812.40
2022-08-07T05:50:00.041Z,98809.60
2022-08-07T05:53:05.131Z,98812.80
2022-08-07T05:56:13.079Z,98805.80
2022-08-07T05:59:22.973Z,98798.40
2022-08-07T06:02:33.102Z,98809.00
2022-08-07T06:05:38.139Z,98804.80
2022-08-07T06:08:47.043Z,98815.00
2022-08-07T06:11:57.761Z,98817.00
2022-08-07T06:15:05.707Z,98816.40
2022-08-07T06:18:13.831Z,98818.40
2022-08-07T06:22:15.557Z,98816.80
2022-08-07T06:24:56.804Z,98822.20
2022-08-07T06:28:07.932Z,98825.00
2022-08-07T06:31:13.274Z,98828.60
2022-08-07T06:34:19.752Z,98827.20
2022-08-07T06:37:25.802Z,98826.20
2022-08-07T06:40:53.192Z,98829.00
2022-08-07T06:44:01.576Z,98828.20
2022-08-07T06:47:12.329Z,98829.40
2022-08-07T06:50:20.256Z,98832.80
2022-08-07T06:55:29.814Z,98838.20
2022-08-07T06:56:56.898Z,98837.80
2022-08-07T07:00:12.237Z,98840.00
2022-08-07T07:03:39.524Z,98840.40
2022-08-07T07:07:00.287Z,98840.00
2022-08-07T07:10:07.796Z,98835.60
2022-08-07T07:13:56.413Z,98831.40
2022-08-07T07:16:50.785Z,98833.80
2022-08-07T07:20:06.381Z,98836.00
2022-08-07T07:24:09.725Z,98834.80
2022-08-07T07:26:51.809Z,98829.80
2022-08-07T07:30:09.316Z,98827.40
2022-08-07T07:33:20.109Z,98829.60
2022-08-07T07:36:32.303Z,98824.80
2022-08-07T07:39:52.355Z,98827.80
2022-08-07T07:43:15.220Z,98829.80
2022-08-07T07:46:37.677Z,98826.00
2022-08-07T07:50:32.964Z,98824.60
2022-08-07T07:53:23.280Z,98825.00
2022-08-07T07:56:33.379Z,98823.00
2022-08-07T07:59:52.013Z,98825.60
2022-08-07T08:03:06.893Z,98819.60
2022-08-07T08:06:14.867Z,98819.40
2022-08-07T08:09:29.565Z,98826.40
2022-08-07T08:12:58.955Z,98825.60
2022-08-07T08:16:05.878Z,98824.00
2022-08-07T08:19:18.141Z,98825.20
2022-08-07T08:23:01.935Z,98830.00
2022-08-07T08:26:28.247Z,98829.40
2022-08-07T08:29:54.211Z,98827.60
2022-08-07T08:33:05.005Z,98829.20
2022-08-07T08:36:16.818Z,98831.40
2022-08-07T08:39:23.235Z,98834.80
2022-08-07T08:42:33.210Z,98831.20
2022-08-07T08:46:00.875Z,98829.80
2022-08-07T08:49:32.837Z,98827.00
2022-08-07T08:52:53.668Z,98825.00
2022-08-07T08:56:04.833Z,98826.60
2022-08-07T08:59:25.372Z,98830.80
2022-08-07T09:02:41.949Z,98828.80
2022-08-07T09:05:55.988Z,98827.40
2022-08-07T09:09:20.646Z,98822.60
2022-08-07T09:12:57.002Z,98822.20
2022-08-07T09:16:23.408Z,98821.80
2022-08-07T09:19:56.296Z,98819.60
2022-08-07T09:24:28.914Z,98815.60
2022-08-07T09:26:53.180Z,98814.80
2022-08-07T09:30:09.410Z,98812.40
2022-08-07T09:33:53.118Z,98810.00
2022-08-07T09:37:07.268Z,98813.20
2022-08-07T09:40:26.593Z,98808.00
2022-08-07T09:44:06.050Z,98809.20
2022-08-07T09:47:58.190Z,98799.40
2022-08-07T09:51:14.758Z,98802.60
2022-08-07T09:54:45.181Z,98804.00
2022-08-07T09:58:53.908Z,98803.60
2022-08-07T10:02:27.014Z,98800.80
2022-08-07T10:06:24.587Z,98794.20
2022-08-07T10:10:00.985Z,98796.20
2022-08-07T10:14:00.111Z,98782.20
2022-08-07T10:18:01.087Z,98779.40
2022-08-07T10:21:19.754Z,98779.40
2022-08-07T10:25:03.611Z,98778.20
2022-08-07T10:28:41.170Z,98776.40
2022-08-07T10:32:50.967Z,98774.60
2022-08-07T10:36:12.758Z,98772.20
2022-08-07T10:40:03.508Z,98766.20
2022-08-07T10:43:19.432Z,98755.60
2022-08-07T10:46:47.394Z,98759.60
2022-08-07T10:50:05.590Z,98757.60
2022-08-07T10:53:23.329Z,98751.00
2022-08-07T10:56:43.933Z,98751.00
2022-08-07T11:00:09.498Z,98750.80
2022-08-07T11:03:52.740Z,98748.20
2022-08-07T11:07:24.532Z,98749.60
2022-08-07T11:10:55.446Z,98745.20
2022-08-07T11:14:43.987Z,98748.20
2022-08-07T11:17:48.257Z,98744.60
2022-08-07T11:21:07.851Z,98735.60
2022-08-07T11:24:30.371Z,98734.20
2022-08-07T11:28:01.419Z,98732.20
2022-08-07T11:31:22.071Z,98738.60
2022-08-07T11:34:40.878Z,98737.00
2022-08-07T11:38:17.567Z,98739.20
2022-08-07T11:42:02.018Z,98734.40
2022-08-07T11:45:12.215Z,98727.80
2022-08-07T11:48:30.489Z,98728.80
2022-08-07T11:51:59.148Z,98722.20
2022-08-07T11:56:15.641Z,98718.40
2022-08-07T12:00:12.653Z,98715.80
2022-08-07T12:03:41.691Z,98712.80
2022-08-07T12:07:03.139Z,98714.40
2022-08-07T12:10:27.524Z,98710.80
2022-08-07T12:13:47.973Z,98707.60
2022-08-07T12:17:01.865Z,98710.40
2022-08-07T12:20:30.363Z,98707.20
2022-08-07T12:24:05.318Z,98707.20
2022-08-07T12:27:26.954Z,98702.20
2022-08-07T12:30:39.144Z,98700.80
2022-08-07T12:33:56.418Z,98704.20
2022-08-07T12:37:22.875Z,98703.60
2022-08-07T12:40:47.396Z,98697.00
2022-08-07T12:44:04.107Z,98697.80
2022-08-07T12:47:32.762Z,98698.80
2022-08-07T12:50:54.382Z,98695.20
2022-08-07T12:54:36.897Z,98696.60
2022-08-07T12:57:39.255Z,98691.60
2022-08-07T13:01:18.151Z,98690.40
2022-08-07T13:05:02.369Z,98696.60
2022-08-07T13:08:34.331Z,98692.40
2022-08-07T13:12:01.853Z,98690.00
2022-08-07T13:15:29.682Z,98682.80
2022-08-07T13:18:50.719Z,98679.00
2022-08-07T13:22:19.492Z,98681.80
2022-08-07T13:25:38.996Z,98676.20
2022-08-07T13:28:58.457Z,98672.00
2022-08-07T13:32:32.012Z,98672.00
2022-08-07T13:36:00.483Z,98673.00
2022-08-07T13:39:49.204Z,98672.40
2022-08-07T13:42:56.208Z,98659.00
2022-08-07T13:46:10.993Z,98657.20
2022-08-07T13:50:34.652Z,98656.00
2022-08-07T13:53:02.829Z,98656.80
2022-08-07T13:56:08.825Z,98657.20
2022-08-07T13:59:30.850Z,98646.40
2022-08-07T14:02:45.756Z,98647.20
2022-08-07T14:05:58.457Z,98647.00
2022-08-07T14:09:05.027Z,98643.80
2022-08-07T14:12:27.594Z,98640.80
2022-08-07T14:15:39.405Z,98646.40
2022-08-07T14:18:56.818Z,98643.20
2022-08-07T14:22:11.682Z,98642.00
2022-08-07T14:25:29.434Z,98643.00
2022-08-07T14:28:59.538Z,98640.20
2022-08-07T14:32:10.172Z,98635.60
2022-08-07T14:35:44.626Z,98629.60
2022-08-07T14:38:53.018Z,98628.20
2022-08-07T14:42:19.618Z,98626.00
2022-08-07T14:45:48.754Z,98630.20
2022-08-07T14:48:56.373Z,98624.80
2022-08-07T14:52:10.638Z,98625.00
2022-08-07T14:55:17.483Z,98621.60
2022-08-07T14:58:31.995Z,98621.80
2022-08-07T15:01:51.001Z,98618.60
2022-08-07T15:04:57.485Z,98615.80
2022-08-07T15:08:12.627Z,98620.60
2022-08-07T15:11:53.725Z,98616.00
2022-08-07T15:14:57.905Z,98605.40
2022-08-07T15:18:14.286Z,98604.80
2022-08-07T15:25:18.526Z,98603.20
2022-08-07T15:28:32.996Z,98593.00
2022-08-07T15:32:00.570Z,98590.80
2022-08-07T15:35:14.877Z,98593.40
2022-08-07T15:38:30.043Z,98591.60
2022-08-07T15:42:44.050Z,98590.00
2022-08-07T15:49:14.278Z,98588.40
2022-08-07T15:52:30.331Z,98587.80
2022-08-07T15:55:53.826Z,98592.00
2022-08-07T15:59:05.845Z,98589.00
2022-08-07T16:02:22.607Z,98588.40
2022-08-07T16:05:31.652Z,98581.40
2022-08-07T16:08:42.759Z,98585.00
2022-08-07T16:12:12.197Z,98580.20
2022-08-07T16:15:55.293Z,98580.60
2022-08-07T16:19:42.230Z,98583.20
2022-08-07T16:23:25.216Z,98584.60
2022-08-07T16:27:18.208Z,98584.00
2022-08-07T16:30:31.997Z,98589.60
2022-08-07T16:34:03.017Z,98584.40
2022-08-07T16:38:04.140Z,98582.80
2022-08-07T16:41:55.963Z,98580.20
2022-08-07T16:46:21.132Z,98579.20
2022-08-07T16:50:27.054Z,98581.40
2022-08-07T16:54:01.145Z,98579.80
2022-08-07T16:58:01.140Z,98583.00
2022-08-07T17:01:34.958Z,98586.00
2022-08-07T17:06:02.185Z,98587.40
2022-08-07T17:09:08.687Z,98588.00
2022-08-07T17:12:34.405Z,98592.60
2022-08-07T17:15:50.696Z,98591.60
2022-08-07T17:19:15.796Z,98591.80
2022-08-07T17:22:37.980Z,98594.00
2022-08-07T17:26:01.549Z,98595.40
2022-08-07T17:30:12.672Z,98595.80
2022-08-07T17:34:09.887Z,98593.80
2022-08-07T17:36:57.507Z,98589.00
2022-08-07T17:40:30.519Z,98596.40
2022-08-07T17:44:02.212Z,98599.60
2022-08-07T17:47:16.841Z,98605.60
2022-08-07T17:50:30.525Z,98604.80
2022-08-07T17:54:00.672Z,98607.20
2022-08-07T17:57:23.579Z,98613.80
2022-08-07T18:00:34.475Z,98618.20
2022-08-07T18:04:16.210Z,98619.00
2022-08-07T18:07:43.664Z,98625.00
2022-08-07T18:12:07.902Z,98635.40
2022-08-07T18:14:44.989Z,98643.00
2022-08-07T18:18:39.919Z,98649.00
2022-08-07T18:21:51.704Z,98649.20
2022-08-07T18:25:01.605Z,98649.00
2022-08-07T18:28:57.873Z,98649.60
2022-08-07T18:32:24.069Z,98647.20
2022-08-07T18:35:50.349Z,98651.40
2022-08-07T18:40:08.055Z,98660.40
2022-08-07T18:43:03.527Z,98659.40
2022-08-07T18:46:27.328Z,98665.40
2022-08-07T18:50:31.464Z,98661.80
2022-08-07T18:53:44.421Z,98667.40
2022-08-07T18:56:58.378Z,98666.80
2022-08-07T19:00:33.497Z,98668.80
2022-08-07T19:03:52.382Z,98669.80
2022-08-07T19:07:08.439Z,98669.60
2022-08-07T19:10:21.888Z,98676.00
2022-08-07T19:13:37.005Z,98675.20
2022-08-07T19:17:07.747Z,98679.40
2022-08-07T19:20:29.106Z,98682.60
2022-08-07T19:23:58.022Z,98692.00
2022-08-07T19:28:57.515Z,98695.20
2022-08-07T19:30:56.747Z,98704.00
2022-08-07T19:34:05.592Z,98707.60
2022-08-07T19:37:17.405Z,98707.00
2022-08-07T19:40:30.969Z,98709.00
2022-08-07T19:43:49.478Z,98710.00
2022-08-07T19:47:07.656Z,98712.60
2022-08-07T19:50:41.062Z,98710.60
2022-08-07T19:54:30.945Z,98714.20
2022-08-07T19:58:00.227Z,98723.40
2022-08-07T20:00:53.882Z,98726.80
2022-08-07T20:04:01.148Z,98730.00
2022-08-07T20:07:10.587Z,98727.80
2022-08-07T20:10:51.889Z,98734.80
2022-08-07T20:13:48.303Z,98734.40
2022-08-07T20:16:56.723Z,98733.40
2022-08-07T20:20:04.194Z,98731.20
2022-08-07T20:23:32.959Z,98736.80
2022-08-07T20:26:46.204Z,98735.20
2022-08-07T20:30:00.291Z,98736.00
2022-08-07T20:33:36.936Z,98733.60
2022-08-07T20:36:34.112Z,98732.40
2022-08-07T20:40:02.009Z,98733.40
2022-08-07T20:43:19.716Z,98732.80
2022-08-07T20:46:33.485Z,98739.40
2022-08-07T20:50:00.395Z,98735.80
2022-08-07T20:53:14.416Z,98743.80
2022-08-07T20:56:26.983Z,98748.40
2022-08-07T21:00:07.581Z,98741.00
2022-08-07T21:03:01.992Z,98744.80
2022-08-07T21:06:21.409Z,98740.00
2022-08-07T21:09:52.373Z,98741.20
2022-08-07T21:13:02.875Z,98744.00
2022-08-07T21:16:10.968Z,98748.00
2022-08-07T21:19:17.374Z,98743.00
2022-08-07T21:22:28.691Z,98745.00
2022-08-07T21:25:56.403Z,98747.60
2022-08-07T21:29:15.954Z,98744.40
2022-08-07T21:32:42.743Z,98749.40
2022-08-07T21:36:05.493Z,98749.60
2022-08-07T21:39:46.757Z,98746.20
2022-08-07T21:43:02.792Z,98754.40
2022-08-07T21:46:31.261Z,98754.80
2022-08-07T21:50:02.023Z,98758.80
2022-08-07T21:53:16.352Z,98764.60
2022-08-07T21:56:46.971Z,98764.00
2022-08-07T22:00:07.227Z,98763.00
2022-08-07T22:03:31.537Z,98771.40
2022-08-07T22:06:49.735Z,98772.60
2022-08-07T22:10:03.087Z,98769.20
2022-08-07T22:13:15.228Z,98774.20
2022-08-07T22:16:38.583Z,98773.40
2022-08-07T22:20:23.694Z,98767.60
2022-08-07T22:23:41.201Z,98774.60
2022-08-07T22:26:56.424Z,98776.00
2022-08-07T22:30:12.334Z,98779.60
2022-08-07T22:33:52.462Z,98781.60
2022-08-07T22:37:04.783Z,98787.40
2022-08-07T22:40:27.763Z,98785.60
2022-08-07T22:43:40.823Z,98795.20
2022-08-07T22:47:27.330Z,98793.20
2022-08-07T22:50:54.023Z,98793.60
2022-08-07T22:54:16.101Z,98800.40
2022-08-07T22:57:50.439Z,98803.40
2022-08-07T23:01:17.719Z,98797.40
2022-08-07T23:04:57.696Z,98801.20
2022-08-07T23:08:49.752Z,98803.20
2022-08-07T23:12:10.212Z,98806.00
2022-08-07T23:16:06.591Z,98804.80
2022-08-07T23:19:52.212Z,98795.80
2022-08-07T23:24:06.298Z,98797.40
2022-08-07T23:27:34.013Z,98804.40
2022-08-07T23:31:06.730Z,98799.00
2022-08-07T23:34:39.660Z,98798.20
2022-08-07T23:38:36.983Z,98804.20
2022-08-07T23:42:22.034Z,98809.80
2022-08-07T23:46:01.432Z,98808.00
2022-08-07T23:49:49.987Z,98805.40
2022-08-07T23:53:19.094Z,98799.80
2022-08-07T23:56:37.979Z,98807.60
